Time;durP1;ratioP1;P1;durP2;ratioP2;P2;SDS_P1;SDS_P2;PMS_P1;PMS_P2;Temp;Humidity;BMP_temperature;BMP_pressure;BME280_temperature;BME280_humidity;BME280_pressure;Samples;Min_cycle;Max_cycle;Signal;HPM_P1;HPM_P2
2022/05/01 00:00:44;;;;;;;15.67;8.97;;;;;;;-142.75;100.00;78791.34;4973785;28;20053;-66
2022/05/01 00:03:30;;;;;;;15.45;8.95;;;;;;;-142.75;100.00;78783.47;5006415;28;20063;-66
2022/05/01 00:05:55;;;;;;;15.17;8.83;;;;;;;-142.75;100.00;78781.50;5000706;28;20065;-66
2022/05/01 00:08:20;;;;;;;17.63;8.43;;;;;;;-142.75;100.00;78781.50;4991668;28;20026;-66
2022/05/01 00:10:45;;;;;;;14.68;8.77;;;;;;;-142.75;100.00;78783.47;4990900;28;20061;-66
2022/05/01 00:13:11;;;;;;;18.15;9.30;;;;;;;-142.75;100.00;78771.66;4995380;28;20126;-66
2022/05/01 00:15:37;;;;;;;17.58;9.68;;;;;;;-142.75;100.00;78771.66;4977802;28;20038;-66
2022/05/01 00:18:03;;;;;;;16.50;9.30;;;;;;;-142.75;100.00;78783.47;4996308;28;20076;-66
2022/05/01 00:20:28;;;;;;;13.23;8.60;;;;;;;-142.75;100.00;78787.41;4993993;28;20046;-66
2022/05/01 00:22:54;;;;;;;9.70;6.35;;;;;;;-142.75;100.00;78793.31;4990735;28;20480;-66
2022/05/01 00:25:19;;;;;;;9.23;5.97;;;;;;;-142.75;100.00;78805.13;5007554;28;20030;-66
2022/05/01 00:27:44;;;;;;;14.30;8.73;;;;;;;-142.75;100.00;78805.13;4992150;28;20026;-66
2022/05/01 00:30:10;;;;;;;18.17;9.52;;;;;;;-142.75;100.00;78811.03;5009617;28;20494;-66
2022/05/01 00:36:25;;;;;;;14.10;8.50;;;;;;;-142.75;100.00;78811.03;5009368;28;20044;-65
2022/05/01 00:38:05;;;;;;;9.23;6.57;;;;;;;-142.75;100.00;78811.03;5010763;28;20521;-65
2022/05/01 00:40:30;;;;;;;12.63;8.40;;;;;;;-142.75;100.00;78814.97;5009282;28;20021;-66
2022/05/01 00:43:01;;;;;;;12.85;7.47;;;;;;;-142.75;100.00;78811.03;4996578;28;20444;-66
2022/05/01 00:45:26;;;;;;;10.87;6.40;;;;;;;-142.75;100.00;78834.69;4989794;28;20022;-66
2022/05/01 00:47:51;;;;;;;12.17;7.07;;;;;;;-142.75;100.00;78842.56;4989970;28;20460;-67
2022/05/01 00:50:17;;;;;;;11.13;7.03;;;;;;;-142.75;100.00;78834.69;4989629;28;20278;-66
2022/05/01 00:52:42;;;;;;;15.02;8.30;;;;;;;-142.75;100.00;78832.72;4989617;28;20042;-65
2022/05/01 00:55:08;;;;;;;11.57;7.20;;;;;;;-142.75;100.00;78834.69;4989685;28;20030;-66
2022/05/01 00:57:34;;;;;;;14.50;8.77;;;;;;;-142.75;100.00;78838.63;4989623;28;20464;-66
2022/05/01 00:59:59;;;;;;;12.73;7.72;;;;;;;-142.75;100.00;78834.69;4989671;28;20530;-66
2022/05/01 01:02:24;;;;;;;16.77;9.25;;;;;;;-142.75;100.00;78832.72;4989418;28;20483;-66
2022/05/01 01:04:49;;;;;;;17.35;8.73;;;;;;;-142.75;100.00;78828.78;4972185;28;20045;-66
2022/05/01 01:07:15;;;;;;;17.70;9.47;;;;;;;-142.75;100.00;78818.91;4990601;28;20132;-66
2022/05/01 01:09:40;;;;;;;18.27;10.93;;;;;;;-142.75;100.00;78818.91;4989859;28;20372;-66
2022/05/01 01:15:08;;;;;;;;;;;;;;;-142.75;100.00;78795.28;4999690;28;20550;-65
2022/05/01 01:17:33;;;;;;;20.60;11.20;;;;;;;-142.75;100.00;78799.22;5000710;28;19925;-67
2022/05/01 01:19:59;;;;;;;22.60;11.83;;;;;;;-142.75;100.00;78799.22;5009273;28;20502;-66
2022/05/01 01:22:24;;;;;;;13.23;7.93;;;;;;;-142.75;100.00;78814.97;5007949;28;20323;-67
2022/05/01 01:24:49;;;;;;;18.88;10.05;;;;;;;-142.75;100.00;78818.91;5009639;28;20785;-67
2022/05/01 01:27:15;;;;;;;15.02;8.20;;;;;;;-142.75;100.00;78826.81;4991722;28;20026;-66
2022/05/01 01:32:25;;;;;;;20.50;11.47;;;;;;;-142.75;100.00;78824.84;5009268;28;20033;-68
2022/05/01 01:34:51;;;;;;;22.33;12.57;;;;;;;-142.75;100.00;78836.66;5009054;28;20018;-67
2022/05/01 01:37:18;;;;;;;17.45;9.63;;;;;;;-142.75;100.00;78860.28;5010626;28;20795;-67
2022/05/01 01:39:44;;;;;;;16.20;9.40;;;;;;;-142.75;100.00;78842.56;5009165;28;20025;-67
2022/05/01 01:42:12;;;;;;;22.83;11.13;;;;;;;-142.75;100.00;78834.69;5008458;28;20025;-67
2022/05/01 01:44:37;;;;;;;21.43;11.93;;;;;;;-142.75;100.00;78820.88;5008756;28;20435;-67
2022/05/01 01:47:03;;;;;;;23.25;12.65;;;;;;;-142.75;100.00;78813.00;5008811;28;20017;-67
2022/05/01 01:49:29;;;;;;;19.92;11.95;;;;;;;-142.75;100.00;78807.09;5008582;28;20117;-67
2022/05/01 01:51:54;;;;;;;22.97;12.33;;;;;;;-142.75;100.00;78807.09;5008454;28;20033;-66
2022/05/01 01:54:19;;;;;;;20.03;12.57;;;;;;;-142.75;100.00;78813.00;5008270;28;20277;-66
2022/05/01 01:56:44;;;;;;;21.97;12.63;;;;;;;-142.75;100.00;78803.16;5008628;28;20304;-66
2022/05/01 01:59:11;;;;;;;20.83;12.87;;;;;;;-142.75;100.00;78797.25;5008591;28;20623;-66
2022/05/01 02:01:40;;;;;;;21.30;12.93;;;;;;;-142.75;100.00;78789.38;5008347;28;20272;-66
2022/05/01 02:04:05;;;;;;;19.60;11.30;;;;;;;-142.75;100.00;78807.09;4993134;28;20018;-66
2022/05/01 02:06:30;;;;;;;18.15;11.00;;;;;;;-142.75;100.00;78813.00;4992802;28;20502;-67
2022/05/01 02:08:58;;;;;;;17.20;10.05;;;;;;;-142.75;100.00;78814.97;4993703;28;20537;-66
2022/05/01 02:11:24;;;;;;;16.30;9.60;;;;;;;-142.75;100.00;78818.91;4992308;28;20101;-67
2022/05/01 02:13:50;;;;;;;15.23;8.50;;;;;;;-142.75;100.00;78834.69;4995274;28;20045;-67
2022/05/01 02:16:17;;;;;;;13.05;7.75;;;;;;;-142.75;100.00;78854.38;5012139;28;20030;-67
2022/05/01 02:18:42;;;;;;;13.47;8.23;;;;;;;-142.75;100.00;78856.34;5012001;28;20099;-66
2022/05/01 02:23:51;;;;;;;14.97;8.93;;;;;;;-142.75;100.00;78872.09;4986238;28;20402;-66
2022/05/01 02:26:17;;;;;;;12.45;7.80;;;;;;;-142.75;100.00;78870.13;4992217;28;20042;-67
2022/05/01 02:28:42;;;;;;;11.38;7.40;;;;;;;-142.75;100.00;78881.94;4992433;28;20392;-66
2022/05/01 02:31:08;;;;;;;13.20;7.97;;;;;;;-142.75;100.00;78878.00;4992035;28;20105;-65
2022/05/01 02:33:33;;;;;;;14.57;8.73;;;;;;;-142.75;100.00;78872.09;4992651;28;20034;-66
2022/05/01 02:35:58;;;;;;;18.10;8.15;;;;;;;-142.75;100.00;78887.84;4992439;28;20104;-66
2022/05/01 02:38:24;;;;;;;10.95;6.75;;;;;;;-142.75;100.00;78897.72;5010103;28;20535;-66
2022/05/01 02:40:49;;;;;;;12.40;7.07;;;;;;;-142.75;100.00;78889.81;5011192;28;20056;-67
2022/05/01 02:43:14;;;;;;;12.07;7.65;;;;;;;-142.75;100.00;78909.53;5002167;28;20292;-67
2022/05/01 02:45:40;;;;;;;11.18;6.88;;;;;;;-142.75;100.00;78929.22;4976864;28;20026;-66
2022/05/01 02:48:06;;;;;;;;;;;;;;;-142.75;100.00;78948.91;5012093;28;20026;-66
2022/05/01 02:50:31;;;;;;;6.83;4.87;;;;;;;-142.75;100.00;78958.75;5011387;28;19967;-66
2022/05/01 02:52:57;;;;;;;7.00;4.95;;;;;;;-142.75;100.00;78970.59;4992398;28;20033;-66
2022/05/01 02:55:22;;;;;;;7.43;4.65;;;;;;;-142.75;100.00;78978.47;4994712;28;20030;-66
2022/05/01 02:57:48;;;;;;;7.85;4.75;;;;;;;-142.75;100.00;78982.41;4992025;28;20033;-66
2022/05/01 03:00:16;;;;;;;7.03;4.30;;;;;;;-142.75;100.00;78980.44;4974366;28;20023;-66
2022/05/01 03:02:46;;;;;;;6.37;4.07;;;;;;;-142.75;100.00;78976.50;4991667;28;20061;-66
2022/05/01 03:05:11;;;;;;;6.77;4.40;;;;;;;-142.75;100.00;78974.53;5004283;28;20038;-66
2022/05/01 03:07:37;;;;;;;6.80;4.35;;;;;;;-142.75;100.00;78978.47;5012464;28;20487;-66
2022/05/01 03:10:02;;;;;;;5.60;4.37;;;;;;;-142.75;100.00;78976.50;5012094;28;20505;-66
2022/05/01 03:12:27;;;;;;;6.68;4.22;;;;;;;-142.75;100.00;78978.47;5011604;28;20272;-66
2022/05/01 03:14:53;;;;;;;11.82;7.45;;;;;;;-142.75;100.00;78968.63;5007657;28;20042;-66
2022/05/01 03:17:18;;;;;;;13.07;7.10;;;;;;;-142.75;100.00;78960.72;4992488;28;20699;-66
2022/05/01 03:22:27;;;;;;;11.10;6.20;;;;;;;-142.75;100.00;78970.59;4992116;28;20112;-67
2022/05/01 03:24:52;;;;;;;8.85;5.53;;;;;;;-142.75;100.00;78970.59;4992215;28;20472;-68
2022/05/01 03:27:17;;;;;;;6.93;5.37;;;;;;;-142.75;100.00;78956.78;4992180;28;20030;-68
2022/05/01 03:30:15;;;;;;;11.10;7.47;;;;;;;-142.75;100.00;78952.84;4998804;28;20264;-67
2022/05/01 03:32:28;;;;;;;12.17;6.57;;;;;;;-142.75;100.00;78954.81;4996320;28;20038;-67
2022/05/01 03:34:54;;;;;;;8.30;5.05;;;;;;;-142.75;100.00;78964.69;5047726;22;20053;-66
2022/05/01 03:37:19;;;;;;;6.22;3.90;;;;;;;-142.75;100.00;78964.69;5030188;28;20399;-66
2022/05/01 03:39:44;;;;;;;6.97;4.60;;;;;;;-142.75;100.00;78958.75;5032389;28;20025;-70
2022/05/01 03:42:10;;;;;;;8.30;5.50;;;;;;;-142.75;100.00;78964.69;5033910;28;20613;-67
2022/05/01 03:44:35;;;;;;;10.93;6.70;;;;;;;-142.75;100.00;78952.84;5049644;28;20057;-69
2022/05/01 03:47:00;;;;;;;20.15;10.63;;;;;;;-142.75;100.00;78943.00;5050767;28;20028;-67
2022/05/01 03:49:25;;;;;;;16.30;9.63;;;;;;;-142.75;100.00;78944.97;5050897;28;20668;-69
2022/05/01 03:51:51;;;;;;;13.87;8.40;;;;;;;-142.75;100.00;78952.84;5050200;28;20278;-66
2022/05/01 03:54:16;;;;;;;16.50;9.45;;;;;;;-142.75;100.00;78956.78;5036363;28;20030;-67
2022/05/01 03:56:41;;;;;;;19.75;10.20;;;;;;;-142.75;100.00;78948.91;5048242;28;20102;-67
2022/05/01 03:59:07;;;;;;;19.17;10.87;;;;;;;-142.75;100.00;78933.16;5033396;28;20031;-67
2022/05/01 04:01:33;;;;;;;24.42;12.50;;;;;;;-142.75;100.00;78913.47;5033138;28;20761;-65
2022/05/01 04:03:59;;;;;;;22.70;13.57;;;;;;;-142.75;100.00;78909.53;5030644;28;20021;-69
2022/05/01 04:06:24;;;;;;;24.27;13.90;;;;;;;-142.75;100.00;78903.63;5031003;28;20040;-67
2022/05/01 04:08:49;;;;;;;23.30;13.23;;;;;;;-142.75;100.00;78897.72;5038217;28;20052;-67
2022/05/01 04:11:15;;;;;;;20.30;11.57;;;;;;;-142.75;100.00;78899.69;5049998;28;20272;-67
2022/05/01 04:13:41;;;;;;;15.65;9.70;;;;;;;-142.75;100.00;78921.34;5050158;28;20111;-67
2022/05/01 04:16:07;;;;;;;13.10;7.40;;;;;;;-142.75;100.00;78941.03;5036352;28;20041;-67
2022/05/01 04:18:32;;;;;;;10.82;6.82;;;;;;;-142.75;100.00;78937.09;5050215;28;20406;-68
2022/05/01 04:20:58;;;;;;;12.87;7.63;;;;;;;-142.75;100.00;78915.44;5041501;28;20017;-67
2022/05/01 04:23:24;;;;;;;20.13;11.90;;;;;;;-142.75;100.00;78913.47;5041245;28;20522;-70
2022/05/01 04:25:50;;;;;;;21.45;12.55;;;;;;;-142.75;100.00;78905.59;5039325;28;20021;-67
2022/05/01 04:28:16;;;;;;;23.00;12.55;;;;;;;-142.75;100.00;78909.53;5039755;28;20029;-67
2022/05/01 04:30:41;;;;;;;21.73;12.63;;;;;;;-142.75;100.00;78909.53;5046161;28;20027;-67
2022/05/01 04:33:13;;;;;;;16.95;10.80;;;;;;;-142.75;100.00;78909.53;5041635;28;20082;-67
2022/05/01 04:35:43;;;;;;;20.07;9.50;;;;;;;-142.75;100.00;78921.34;5033038;28;20099;-67
2022/05/01 04:38:14;;;;;;;14.63;7.90;;;;;;;-142.75;100.00;78917.41;5049342;28;20033;-67
2022/05/01 04:40:41;;;;;;;13.47;8.30;;;;;;;-142.75;100.00;78897.72;5028625;28;20024;-68
2022/05/01 04:43:18;;;;;;;15.93;8.13;;;;;;;-142.75;100.00;78897.72;5038227;28;20025;-67
2022/05/01 04:45:49;;;;;;;19.43;9.50;;;;;;;-142.75;100.00;78893.78;5035337;28;20017;-67
2022/05/01 04:48:16;;;;;;;19.93;10.00;;;;;;;-142.75;100.00;78893.78;5038075;28;20494;-69
2022/05/01 04:50:41;;;;;;;14.33;8.43;;;;;;;-142.75;100.00;78883.91;5038254;28;20024;-67
2022/05/01 04:53:12;;;;;;;10.18;5.97;;;;;;;-142.75;100.00;78866.19;5033370;28;20022;-67
2022/05/01 04:55:38;;;;;;;6.70;4.80;;;;;;;-142.75;100.00;78870.13;5035751;28;20112;-67
2022/05/01 04:58:04;;;;;;;10.53;5.47;;;;;;;-142.75;100.00;78864.22;5031796;28;20108;-67
2022/05/01 05:00:30;;;;;;;6.60;4.75;;;;;;;-142.75;100.00;78844.53;5032182;28;20060;-66
2022/05/01 05:02:59;;;;;;;9.10;5.93;;;;;;;-142.75;100.00;78842.56;5049455;28;20021;-67
2022/05/01 05:05:27;;;;;;;7.93;5.30;;;;;;;-142.75;100.00;78838.63;5049271;28;20132;-70
2022/05/01 05:07:53;;;;;;;10.43;6.40;;;;;;;-142.75;100.00;78844.53;5035154;28;20107;-67
2022/05/01 05:10:18;;;;;;;8.20;5.80;;;;;;;-142.75;100.00;78834.69;5034367;28;20469;-69
2022/05/01 05:12:45;;;;;;;10.95;6.40;;;;;;;-142.75;100.00;78818.91;5029063;28;20483;-67
2022/05/01 05:15:15;;;;;;;18.30;10.83;;;;;;;-142.75;100.00;78813.00;5035078;28;20021;-67
2022/05/01 05:17:41;;;;;;;19.93;12.27;;;;;;;-142.75;100.00;78799.22;5028121;28;20120;-67
2022/05/01 05:20:08;;;;;;;17.40;11.35;;;;;;;-142.75;100.00;78775.59;5029445;28;20040;-67
2022/05/01 05:22:34;;;;;;;23.77;12.97;;;;;;;-142.75;100.00;78779.53;5040368;28;20111;-67
2022/05/01 05:24:59;;;;;;;21.52;12.80;;;;;;;-142.75;100.00;78771.66;5041823;28;20092;-65
2022/05/01 05:27:28;;;;;;;23.30;12.70;;;;;;;-142.75;100.00;78761.81;5031524;28;20029;-68
2022/05/01 05:29:56;;;;;;;22.00;12.57;;;;;;;-142.75;100.00;78744.09;5032400;28;20067;-70
2022/05/01 05:32:23;;;;;;;20.70;12.27;;;;;;;-142.75;100.00;78738.16;5028954;28;20025;-67
2022/05/01 05:34:50;;;;;;;21.57;12.73;;;;;;;-142.75;100.00;78732.25;5042981;28;20033;-71
2022/05/01 05:37:16;;;;;;;20.65;12.00;;;;;;;-142.75;100.00;78720.44;5049617;28;20040;-69
2022/05/01 05:39:42;;;;;;;20.07;11.73;;;;;;;-142.75;100.00;78722.41;5048652;28;20029;-67
2022/05/01 05:42:08;;;;;;;19.23;11.07;;;;;;;-142.75;100.00;78712.56;5032859;28;20025;-69
2022/05/01 05:44:33;;;;;;;20.20;11.50;;;;;;;-142.75;100.00;78683.03;5050442;28;20086;-67
2022/05/01 05:46:58;;;;;;;21.45;12.88;;;;;;;-142.75;100.00;78663.31;5052939;28;20028;-66
2022/05/01 05:49:24;;;;;;;25.70;14.88;;;;;;;-142.75;100.00;78637.72;5047729;28;20036;-67
2022/05/01 05:51:49;;;;;;;26.98;15.45;;;;;;;-142.75;100.00;78621.97;5045547;28;20049;-67
2022/05/01 05:54:14;;;;;;;26.05;16.13;;;;;;;-142.75;100.00;78616.06;5052598;28;20027;-68
2022/05/01 05:56:40;;;;;;;30.52;19.02;;;;;;;-142.75;100.00;78596.38;5046035;28;20159;-66
2022/05/01 05:59:05;;;;;;;33.97;20.90;;;;;;;-142.75;100.00;78588.50;5051444;28;20151;-66
2022/05/01 06:01:30;;;;;;;32.05;18.83;;;;;;;-142.75;100.00;78574.69;5037728;28;20082;-66
2022/05/01 06:03:55;;;;;;;35.08;18.92;;;;;;;-142.75;100.00;78568.78;5036626;28;20116;-67
2022/05/01 06:06:21;;;;;;;36.28;19.10;;;;;;;-142.75;100.00;78551.06;5047667;28;20028;-67
2022/05/01 06:08:46;;;;;;;33.30;17.98;;;;;;;-142.75;100.00;78541.22;5052520;28;20086;-67
2022/05/01 06:11:12;;;;;;;33.40;17.63;;;;;;;-142.75;100.00;78531.38;5038221;28;20025;-66
2022/05/01 06:13:37;;;;;;;31.92;17.85;;;;;;;-142.75;100.00;78523.50;5031197;28;20032;-68
2022/05/01 06:16:03;;;;;;;30.92;17.73;;;;;;;-142.75;100.00;78499.88;5039640;28;20013;-68
2022/05/01 06:18:28;;;;;;;32.38;17.45;;;;;;;-142.75;100.00;78464.41;5031496;28;20037;-67
2022/05/01 06:20:54;;;;;;;34.85;18.08;;;;;;;-142.75;100.00;78440.78;5032078;28;20033;-68
2022/05/01 06:23:20;;;;;;;30.67;17.38;;;;;;;-142.75;100.00;78425.03;5032406;28;20392;-67
2022/05/01 06:25:46;;;;;;;30.70;17.30;;;;;;;-142.75;100.00;78381.69;5032338;28;20025;-66
2022/05/01 06:28:15;;;;;;;;;;;;;;;-142.75;100.00;78346.25;5033125;28;20032;-68
2022/05/01 06:30:45;;;;;;;26.63;15.48;;;;;;;-142.75;100.00;78338.38;5035885;28;19917;-66
2022/05/01 06:33:20;;;;;;;27.35;16.00;;;;;;;-142.75;100.00;78308.84;5028102;28;20025;-66
2022/05/01 06:35:50;;;;;;;24.38;14.50;;;;;;;-142.75;100.00;78316.72;5030068;28;20040;-67
2022/05/01 06:38:15;;;;;;;26.83;14.73;;;;;;;-142.75;100.00;78310.81;5031576;28;20080;-68
2022/05/01 06:40:44;;;;;;;28.58;15.63;;;;;;;-142.75;100.00;78318.69;5029447;28;20033;-66
2022/05/01 06:43:11;;;;;;;23.98;14.25;;;;;;;-142.75;100.00;78306.88;5030961;28;20462;-67
2022/05/01 06:45:36;;;;;;;23.42;14.00;;;;;;;-142.75;100.00;78271.41;5029377;28;20099;-67
2022/05/01 06:48:01;;;;;;;27.65;14.85;;;;;;;-142.75;100.00;78279.28;5030278;28;20501;-66
2022/05/01 06:50:28;;;;;;;22.17;14.02;;;;;;;-142.75;100.00;78245.81;5030259;28;20029;-70
2022/05/01 06:52:53;;;;;;;25.08;14.02;;;;;;;-142.75;100.00;78204.47;5040513;28;20024;-66
2022/05/01 06:55:19;;;;;;;20.67;12.82;;;;;;;-142.75;100.00;78194.63;5050313;28;20021;-66
2022/05/01 06:57:44;;;;;;;21.77;12.63;;;;;;;-142.75;100.00;78157.19;5048897;28;20039;-65
2022/05/01 07:00:11;;;;;;;22.35;11.68;;;;;;;-142.75;100.00;78109.94;5035906;28;20030;-65
2022/05/01 07:02:43;;;;;;;26.73;12.82;;;;;;;-142.75;100.00;78098.13;5029544;28;20486;-66
2022/05/01 07:05:08;;;;;;;21.08;12.38;;;;;;;-142.75;100.00;78054.81;5029759;28;20029;-66
2022/05/01 07:07:33;;;;;;;20.52;11.88;;;;;;;-142.75;100.00;78035.09;5030185;28;20148;-66
2022/05/01 07:09:59;;;;;;;20.88;11.63;;;;;;;-142.75;100.00;77991.78;5037380;28;20028;-68
2022/05/01 07:12:24;;;;;;;18.58;10.70;;;;;;;-142.75;100.00;77983.91;5028613;28;20037;-65
2022/05/01 07:14:49;;;;;;;17.77;11.48;;;;;;;-142.75;100.00;77968.16;5041304;28;20406;-65
2022/05/01 07:17:14;;;;;;;;;;;;;;;-142.75;100.00;77972.09;5030475;28;20025;-66
2022/05/01 07:19:40;;;;;;;18.38;10.95;;;;;;;-142.75;100.00;77991.78;5031250;28;19913;-65
2022/05/01 07:22:05;;;;;;;17.27;10.38;;;;;;;-142.75;100.00;78007.53;5049072;28;20029;-66
2022/05/01 07:24:30;;;;;;;15.27;8.52;;;;;;;-142.75;100.00;78009.50;5045161;28;20036;-67
2022/05/01 07:26:56;;;;;;;13.88;8.30;;;;;;;-142.75;100.00;78011.47;5029408;28;20205;-66
2022/05/01 07:29:21;;;;;;;16.52;8.10;;;;;;;-142.75;100.00;78021.31;5030220;28;20040;-67
2022/05/01 07:31:46;;;;;;;16.80;9.93;;;;;;;-142.75;100.00;78042.97;5029469;28;20091;-66
2022/05/01 07:34:11;;;;;;;;;;;;;;;-142.75;100.00;78068.59;5028470;28;20025;-66
2022/05/01 07:36:37;;;;;;;13.30;8.52;;;;;;;-142.75;100.00;78082.38;5048769;28;19986;-66
2022/05/01 07:39:03;;;;;;;12.73;8.20;;;;;;;-142.75;100.00;78078.44;5028590;28;20029;-67
2022/05/01 07:41:28;;;;;;;15.90;9.02;;;;;;;-142.75;100.00;78070.56;5045203;28;20021;-67
2022/05/01 07:43:57;;;;;;;13.35;8.52;;;;;;;-142.75;100.00;78058.72;5048097;28;20037;-68
2022/05/01 07:46:23;;;;;;;17.23;9.38;;;;;;;-142.75;100.00;78054.81;5049423;28;20494;-66
2022/05/01 07:48:48;;;;;;;13.77;8.93;;;;;;;-142.75;100.00;78058.72;5047815;28;20075;-68
2022/05/01 07:51:17;;;;;;;14.10;8.38;;;;;;;-142.75;100.00;78054.81;5046318;28;20021;-67
2022/05/01 07:53:43;;;;;;;19.77;9.82;;;;;;;-142.75;100.00;78078.44;5034451;28;20490;-70
2022/05/01 07:56:08;;;;;;;15.73;8.10;;;;;;;-142.75;100.00;78033.13;5038833;28;20031;-67
2022/05/01 07:58:34;;;;;;;15.73;8.77;;;;;;;-142.75;100.00;78019.34;5030018;28;20482;-67
2022/05/01 08:01:01;;;;;;;16.60;9.43;;;;;;;-142.75;100.00;78011.47;5037927;28;20025;-65
2022/05/01 08:06:11;;;;;;;10.85;6.35;;;;;;;-142.75;100.00;77897.25;5029326;28;20039;-65
2022/05/01 08:08:37;;;;;;;11.38;6.93;;;;;;;-142.75;100.00;77869.69;5037128;28;20026;-67
2022/05/01 08:11:06;;;;;;;13.75;6.95;;;;;;;-142.75;100.00;77869.69;5037574;28;20033;-67
2022/05/01 08:13:32;;;;;;;12.55;8.02;;;;;;;-142.75;100.00;77814.56;5040093;28;20059;-67
2022/05/01 08:15:58;;;;;;;12.27;7.72;;;;;;;-142.75;100.00;77820.47;5040406;28;20037;-66
2022/05/01 08:21:08;;;;;;;15.40;7.28;;;;;;;-142.75;100.00;77716.09;5030282;28;22162;-67
2022/05/01 08:23:34;;;;;;;11.55;7.80;;;;;;;-142.75;100.00;77729.88;5025985;28;20037;-67
2022/05/01 08:26:06;;;;;;;13.65;7.18;;;;;;;-142.75;100.00;77767.31;5027158;28;20057;-66
2022/05/01 08:28:36;;;;;;;11.35;6.07;;;;;;;-142.75;100.00;77779.13;5032782;28;20029;-67
2022/05/01 08:31:03;;;;;;;7.50;5.18;;;;;;;-142.75;100.00;77783.06;5028145;28;20104;-66
2022/05/01 08:33:29;;;;;;;8.65;5.05;;;;;;;-142.75;100.00;77790.94;5027118;28;20049;-66
2022/05/01 08:35:54;;;;;;;13.38;6.07;;;;;;;-142.75;100.00;77846.06;5027987;28;20060;-65
2022/05/01 08:38:20;;;;;;;;;;;;;;;-142.75;100.00;77777.16;5028950;28;20033;-66
2022/05/01 08:40:48;;;;;;;14.50;5.57;;;;;;;-142.75;100.00;77733.84;5031535;28;19957;-67
2022/05/01 08:43:21;;;;;;;8.45;4.75;;;;;;;-142.75;100.00;77684.59;5042217;28;20033;-67
2022/05/01 08:46:04;;;;;;;8.82;5.22;;;;;;;-142.75;100.00;77657.03;5039825;28;20036;-66
2022/05/01 08:48:39;;;;;;;9.07;5.43;;;;;;;-142.75;100.00;77668.84;5042383;28;20033;-67
2022/05/01 08:51:05;;;;;;;10.23;5.38;;;;;;;-142.75;100.00;77680.66;5038417;28;20158;-67
2022/05/01 08:53:31;;;;;;;8.98;5.10;;;;;;;-142.75;100.00;77700.34;5036154;28;20120;-67
2022/05/01 08:55:59;;;;;;;12.00;6.07;;;;;;;-142.75;100.00;77735.81;5039764;28;20029;-67
2022/05/01 08:58:26;;;;;;;8.18;4.93;;;;;;;-142.75;100.00;77769.28;5028932;28;20029;-68
2022/05/01 09:00:52;;;;;;;8.10;5.53;;;;;;;-142.75;100.00;77794.88;5040460;28;20490;-68
2022/05/01 09:03:18;;;;;;;9.93;5.97;;;;;;;-142.75;100.00;77810.63;5038823;28;20449;-68
2022/05/01 09:05:44;;;;;;;9.27;5.85;;;;;;;-142.75;100.00;77857.88;5039865;28;20104;-67
2022/05/01 09:08:10;;;;;;;10.95;6.18;;;;;;;-142.75;100.00;77822.44;5042934;28;20380;-68
2022/05/01 09:10:36;;;;;;;11.10;5.63;;;;;;;-142.75;100.00;77806.69;5043855;28;20151;-68
2022/05/01 09:13:01;;;;;;;;;;;;;;;-142.75;100.00;77790.94;5047302;28;20104;-68
2022/05/01 09:15:34;;;;;;;10.20;5.65;;;;;;;-142.75;100.00;77743.69;5040236;28;19920;-69
2022/05/01 09:18:04;;;;;;;16.02;4.90;;;;;;;-142.75;100.00;77710.19;5032236;28;20024;-68
2022/05/01 09:20:31;;;;;;;7.70;5.00;;;;;;;-142.75;100.00;77676.72;5034623;28;20442;-68
2022/05/01 09:22:58;;;;;;;10.02;5.45;;;;;;;-142.75;100.00;77637.34;5039150;28;20040;-68
2022/05/01 09:25:26;;;;;;;10.52;5.95;;;;;;;-142.75;100.00;77592.06;5030879;28;20021;-68
2022/05/01 09:27:54;;;;;;;9.20;5.30;;;;;;;-142.75;100.00;77605.84;5036290;28;20025;-69
2022/05/01 09:30:24;;;;;;;13.82;6.20;;;;;;;-142.75;100.00;77631.44;5036184;28;20017;-65
2022/05/01 09:32:49;;;;;;;11.20;5.90;;;;;;;-142.75;100.00;77627.50;5029111;28;20029;-68
2022/05/01 09:35:22;;;;;;;10.27;5.97;;;;;;;-142.75;100.00;77631.44;5059797;22;20076;-67
2022/05/01 09:37:48;;;;;;;8.82;5.22;;;;;;;-142.75;100.00;77657.03;5030527;28;20035;-67
2022/05/01 09:40:29;;;;;;;11.18;5.85;;;;;;;-142.75;100.00;77716.09;5048361;28;20436;-66
2022/05/01 09:42:54;;;;;;;10.68;5.40;;;;;;;-142.75;100.00;77722.00;5049580;28;20036;-66
2022/05/01 09:45:29;;;;;;;14.68;5.97;;;;;;;-142.75;100.00;77741.72;5049355;28;20029;-66
2022/05/01 09:47:54;;;;;;;9.70;5.43;;;;;;;-142.75;100.00;77731.88;5048267;28;20017;-66
2022/05/01 09:50:38;;;;;;;10.27;5.10;;;;;;;-142.75;100.00;77725.97;5049149;28;20032;-67
2022/05/01 09:53:03;;;;;;;8.93;4.93;;;;;;;-142.75;100.00;77727.94;5049010;28;20071;-67
2022/05/01 09:55:30;;;;;;;9.70;4.63;;;;;;;-142.75;100.00;77704.28;5049213;28;20025;-67
2022/05/01 09:58:02;;;;;;;7.95;4.70;;;;;;;-142.75;100.00;77690.50;5049474;28;20375;-67
2022/05/01 10:00:38;;;;;;;9.68;5.15;;;;;;;-142.75;100.00;77686.56;5048906;28;20025;-66
2022/05/01 10:03:19;;;;;;;;;;;;;;;-142.75;100.00;77672.78;5049547;28;20028;-66
2022/05/01 10:05:46;;;;;;;7.82;4.35;;;;;;;-142.75;100.00;77674.75;5048952;28;20317;-68
2022/05/01 10:08:12;;;;;;;8.55;4.95;;;;;;;-142.75;100.00;77680.66;5048958;28;20055;-68
2022/05/01 10:10:40;;;;;;;9.38;4.43;;;;;;;-142.75;100.00;77682.63;5049388;28;20413;-68
2022/05/01 10:13:06;;;;;;;8.40;4.07;;;;;;;-142.75;100.00;77653.09;5048950;28;20048;-68
2022/05/01 10:15:33;;;;;;;9.35;4.63;;;;;;;-142.75;100.00;77609.78;5048568;28;20033;-67
2022/05/01 10:17:58;;;;;;;6.78;4.15;;;;;;;-142.75;100.00;77609.78;5047682;28;20043;-67
2022/05/01 10:20:24;;;;;;;5.22;3.53;;;;;;;-142.75;100.00;77611.75;5048741;28;20033;-67
2022/05/01 10:22:50;;;;;;;;;;;;;;;-142.75;100.00;77566.47;5049180;28;20036;-67
2022/05/01 10:25:18;;;;;;;6.38;4.30;;;;;;;-142.75;100.00;77578.28;5050938;28;19917;-66
2022/05/01 10:27:56;;;;;;;8.35;4.10;;;;;;;-142.75;100.00;77479.84;5052354;28;20047;-66
2022/05/01 10:33:44;;;;;;;6.47;4.20;;;;;;;-142.75;91.93;77420.75;5052335;28;20036;-66
2022/05/01 10:36:15;;;;;;;6.72;3.10;;;;;;;-142.75;88.77;77391.22;5052052;28;20401;-66
2022/05/01 10:39:09;;;;;;;9.70;3.85;;;;;;;-142.75;82.29;77426.66;5052533;28;20494;-67
2022/05/01 10:41:40;;;;;;;6.72;3.78;;;;;;;-142.75;88.21;77456.22;5051971;28;20013;-67
2022/05/01 10:44:05;;;;;;;8.80;4.18;;;;;;;-142.75;86.42;77468.03;5052038;28;20029;-68
2022/05/01 10:46:31;;;;;;;;;;;;;;;-142.75;81.25;77438.47;5052447;28;20612;-68
2022/05/01 10:49:01;;;;;;;7.88;3.28;;;;;;;-142.75;76.57;77405.00;5051740;28;19913;-68
2022/05/01 10:51:38;;;;;;;7.45;3.95;;;;;;;-142.75;75.91;77361.69;5051728;28;20021;-68
2022/05/01 10:54:30;;;;;;;6.80;2.97;;;;;;;-142.75;66.18;77290.81;5051884;28;20027;-68
2022/05/01 10:57:06;;;;;;;7.72;3.05;;;;;;;-142.75;68.71;77231.75;5051698;28;20501;-66
2022/05/01 10:59:33;;;;;;;6.30;3.83;;;;;;;-142.75;68.54;77239.63;5051290;28;20032;-67
2022/05/01 11:02:35;;;;;;;5.45;3.28;;;;;;;-142.75;73.70;77141.19;5050781;28;20029;-66
2022/05/01 11:05:00;;;;;;;7.20;3.00;;;;;;;-142.75;71.47;77052.59;5050488;28;20433;-67
2022/05/01 11:07:28;;;;;;;5.28;3.65;;;;;;;-142.75;64.72;77023.06;5050570;28;20040;-68
2022/05/01 11:09:56;;;;;;;5.95;3.25;;;;;;;-142.75;64.72;76964.00;5051073;28;20544;-67
2022/05/01 11:12:24;;;;;;;5.30;3.58;;;;;;;-142.75;61.81;76971.88;5050159;28;20109;-68
2022/05/01 11:14:59;;;;;;;5.70;3.50;;;;;;;-142.75;62.44;76918.72;5048990;28;20021;-67
2022/05/01 11:17:49;;;;;;;5.80;2.90;;;;;;;-142.75;57.32;76877.38;5050373;28;20070;-67
2022/05/01 11:20:14;;;;;;;5.80;3.45;;;;;;;-142.75;56.66;76891.16;5050120;28;20029;-68
2022/05/01 11:22:40;;;;;;;5.25;3.33;;;;;;;-142.75;56.46;76908.88;5048784;28;20456;-67
2022/05/01 11:25:10;;;;;;;5.13;3.33;;;;;;;-142.75;57.15;76964.00;5050239;28;20017;-67
2022/05/01 11:27:49;;;;;;;6.38;3.90;;;;;;;-142.75;57.39;77101.81;5049571;28;20028;-67